Time;durP1;ratioP1;P1;durP2;ratioP2;P2;SDS_P1;SDS_P2;PMS_P1;PMS_P2;Temp;Humidity;BMP_temperature;BMP_pressure;BME280_temperature;BME280_humidity;BME280_pressure;Samples;Min_cycle;Max_cycle;Signal;HPM_P1;HPM_P2
2023/04/22 00:01:42;;;;;;;27.63;24.27;;;10.60;95.30;;;;;;4986918;28;20185;-89
2023/04/22 00:04:14;;;;;;;28.03;23.83;;;10.60;94.90;;;;;;4994116;28;20172;-90
2023/04/22 00:06:40;;;;;;;27.70;24.90;;;10.50;95.30;;;;;;4999392;28;20178;-87
2023/04/22 00:09:07;;;;;;;27.83;24.43;;;10.50;95.80;;;;;;4997559;28;20175;-91
2023/04/22 00:11:33;;;;;;;25.23;22.60;;;10.50;96.40;;;;;;4997808;28;20217;-89
2023/04/22 00:13:59;;;;;;;26.30;23.27;;;10.60;96.60;;;;;;4997213;28;20183;-89
2023/04/22 00:16:26;;;;;;;26.50;23.47;;;10.60;96.70;;;;;;4995561;28;20289;-89
2023/04/22 00:18:52;;;;;;;27.43;24.43;;;10.60;96.00;;;;;;5000802;28;20198;-89
2023/04/22 00:21:17;;;;;;;26.03;23.33;;;10.60;95.70;;;;;;5002614;28;20254;-91
2023/04/22 00:23:44;;;;;;;26.67;22.80;;;10.70;95.90;;;;;;5004531;28;20186;-88
2023/04/22 00:26:10;;;;;;;27.50;24.60;;;10.70;95.20;;;;;;5004060;28;20182;-89
2023/04/22 00:28:36;;;;;;;26.63;23.67;;;10.80;92.90;;;;;;4999092;28;20178;-89
2023/04/22 00:31:03;;;;;;;30.73;25.83;;;10.90;90.80;;;;;;5003500;28;20214;-89
2023/04/22 00:33:29;;;;;;;29.07;25.90;;;10.90;90.00;;;;;;4996086;28;20253;-90
2023/04/22 00:35:57;;;;;;;29.00;25.87;;;10.90;88.10;;;;;;4994820;28;20274;-89
2023/04/22 00:38:23;;;;;;;30.17;27.00;;;10.90;87.10;;;;;;4994770;28;20186;-89
2023/04/22 00:40:51;;;;;;;30.30;26.57;;;11.00;86.60;;;;;;4994641;28;20179;-89
2023/04/22 00:43:18;;;;;;;29.30;25.60;;;10.90;86.60;;;;;;4996604;28;20194;-90
2023/04/22 00:45:44;;;;;;;28.63;25.63;;;10.90;88.10;;;;;;4995136;28;20186;-89
2023/04/22 00:48:11;;;;;;;31.20;27.77;;;10.80;84.60;;;;;;4998628;28;20167;-86
2023/04/22 00:50:37;;;;;;;30.63;26.87;;;10.70;86.90;;;;;;5017788;28;20178;-89
2023/04/22 00:53:03;;;;;;;30.80;27.43;;;10.70;87.80;;;;;;5015837;28;20213;-88
2023/04/22 00:55:29;;;;;;;30.63;27.23;;;10.70;88.70;;;;;;4998207;28;20650;-90
2023/04/22 00:57:59;;;;;;;30.70;25.93;;;10.70;88.20;;;;;;4996796;28;20202;-88
2023/04/22 01:00:26;;;;;;;31.00;27.17;;;10.60;88.80;;;;;;4995363;28;20178;-90
2023/04/22 01:02:56;;;;;;;30.30;26.90;;;10.70;89.00;;;;;;5014869;28;20181;-86
2023/04/22 01:05:23;;;;;;;29.10;25.97;;;10.70;90.40;;;;;;5017625;28;20183;-86
2023/04/22 01:07:50;;;;;;;28.90;25.63;;;10.70;91.20;;;;;;5017868;28;20179;-87
2023/04/22 01:10:17;;;;;;;29.03;25.27;;;10.80;91.90;;;;;;5017501;28;20155;-89
2023/04/22 01:12:46;;;;;;;28.43;25.43;;;10.90;91.80;;;;;;5011481;28;20217;-89
2023/04/22 01:15:15;;;;;;;27.43;24.63;;;10.90;91.40;;;;;;5013053;28;20174;-89
2023/04/22 01:17:41;;;;;;;30.43;26.20;;;11.00;90.20;;;;;;5017226;28;20183;-90
2023/04/22 01:20:10;;;;;;;30.53;26.53;;;11.10;88.70;;;;;;5018624;28;20183;-87
2023/04/22 01:22:43;;;;;;;28.63;25.53;;;11.10;86.70;;;;;;5021886;28;20223;-88
2023/04/22 01:25:10;;;;;;;30.47;24.67;;;11.10;85.60;;;;;;5012378;28;20186;-86
2023/04/22 01:27:37;;;;;;;28.73;25.57;;;11.10;84.90;;;;;;5001615;28;20616;-87
2023/04/22 01:30:06;;;;;;;26.73;23.63;;;11.10;83.90;;;;;;4998601;28;20191;-86
2023/04/22 01:32:37;;;;;;;26.67;23.87;;;11.20;83.30;;;;;;4997683;28;20338;-86
2023/04/22 01:35:03;;;;;;;27.93;24.93;;;11.20;82.60;;;;;;4997073;28;20206;-89
2023/04/22 01:37:29;;;;;;;27.57;24.57;;;11.20;81.10;;;;;;4995781;28;20199;-85
2023/04/22 01:39:57;;;;;;;27.50;24.13;;;11.30;79.10;;;;;;4996870;28;20643;-86
2023/04/22 01:42:23;;;;;;;28.67;25.63;;;11.30;78.70;;;;;;5004280;28;20528;-88
2023/04/22 01:44:49;;;;;;;28.03;25.13;;;11.20;78.00;;;;;;4998001;28;20175;-86
2023/04/22 01:47:15;;;;;;;29.20;26.03;;;11.10;78.70;;;;;;4997101;28;20193;-88
2023/04/22 01:49:40;;;;;;;29.30;26.27;;;11.00;81.40;;;;;;5012711;28;20161;-89
2023/04/22 01:52:09;;;;;;;27.20;24.30;;;11.10;80.80;;;;;;5016296;28;20218;-89
2023/04/22 01:54:35;;;;;;;28.40;25.30;;;11.10;79.30;;;;;;4999135;28;20171;-90
2023/04/22 01:57:10;;;;;;;27.57;24.67;;;11.20;78.70;;;;;;4997943;28;20264;-89
2023/04/22 01:59:36;;;;;;;30.63;26.10;;;11.30;76.50;;;;;;4998586;28;20174;-90
2023/04/22 02:02:01;;;;;;;28.23;25.13;;;11.30;75.20;;;;;;4996446;28;20179;-89
2023/04/22 02:04:27;;;;;;;28.47;24.60;;;11.30;74.30;;;;;;5002172;28;20160;-87
2023/04/22 02:06:55;;;;;;;28.07;25.17;;;11.30;73.70;;;;;;5018400;28;20175;-89
2023/04/22 02:09:20;;;;;;;28.07;23.53;;;11.40;73.20;;;;;;4998623;28;20171;-89
2023/04/22 02:11:46;;;;;;;26.70;23.90;;;11.40;72.90;;;;;;4998645;28;20229;-88
2023/04/22 02:14:12;;;;;;;29.47;25.50;;;11.40;72.10;;;;;;4996769;28;20715;-89
2023/04/22 02:16:40;;;;;;;26.90;23.97;;;11.50;71.60;;;;;;4997519;28;20322;-90
2023/04/22 02:19:06;;;;;;;28.27;24.50;;;11.40;71.50;;;;;;4999053;28;20183;-89
2023/04/22 02:21:32;;;;;;;27.53;23.83;;;11.30;74.10;;;;;;4996233;28;20175;-89
2023/04/22 02:23:58;;;;;;;28.03;24.60;;;11.40;74.30;;;;;;4997624;28;20241;-89
2023/04/22 02:26:24;;;;;;;26.67;23.87;;;11.40;75.00;;;;;;4996678;28;20633;-89
2023/04/22 02:28:53;;;;;;;25.87;23.17;;;11.40;74.20;;;;;;4996978;28;20601;-89
2023/04/22 02:31:19;;;;;;;27.50;24.60;;;11.40;74.30;;;;;;4996611;28;20217;-89
2023/04/22 02:33:45;;;;;;;26.07;23.10;;;11.50;71.60;;;;;;4997783;28;20175;-90
2023/04/22 02:36:11;;;;;;;28.10;24.27;;;11.50;70.50;;;;;;4998534;28;20171;-89
2023/04/22 02:38:37;;;;;;;25.97;23.23;;;11.60;69.80;;;;;;4996076;28;20184;-89
2023/04/22 02:41:04;;;;;;;27.17;24.30;;;11.60;69.30;;;;;;4996985;28;20175;-89
2023/04/22 02:43:32;;;;;;;29.73;24.73;;;11.60;69.40;;;;;;4997731;28;20246;-89
2023/04/22 02:45:58;;;;;;;27.30;24.37;;;11.70;68.00;;;;;;5000805;28;20179;-89
2023/04/22 02:48:23;;;;;;;28.23;24.60;;;11.60;67.90;;;;;;5017106;28;20255;-84
2023/04/22 02:50:49;;;;;;;27.57;24.63;;;11.60;67.20;;;;;;5019577;28;20211;-87
2023/04/22 02:53:15;;;;;;;27.87;24.73;;;11.50;66.70;;;;;;5007749;28;20667;-89
2023/04/22 02:55:44;;;;;;;29.17;25.73;;;11.50;65.50;;;;;;5001318;28;20525;-85
2023/04/22 02:58:10;;;;;;;32.13;26.03;;;11.50;64.60;;;;;;5004784;28;20175;-86
2023/04/22 03:00:36;;;;;;;31.30;26.23;;;11.50;65.90;;;;;;5002373;28;20170;-85
2023/04/22 03:03:04;;;;;;;33.80;26.40;;;11.50;66.60;;;;;;4997195;28;20230;-86
2023/04/22 03:05:29;;;;;;;31.63;26.93;;;11.40;68.40;;;;;;4997839;28;20221;-86
2023/04/22 03:07:55;;;;;;;30.47;27.17;;;11.40;69.70;;;;;;5011347;28;20152;-88
2023/04/22 03:10:24;;;;;;;31.60;25.93;;;11.40;70.60;;;;;;5020326;28;20167;-88
2023/04/22 03:12:50;;;;;;;28.37;25.27;;;11.30;73.40;;;;;;5016487;28;20219;-86
2023/04/22 03:15:15;;;;;;;29.37;26.17;;;11.10;80.10;;;;;;5012355;28;20202;-88
2023/04/22 03:17:41;;;;;;;30.37;25.70;;;11.10;83.70;;;;;;5010221;28;20175;-87
2023/04/22 03:20:10;;;;;;;30.23;25.70;;;10.80;89.50;;;;;;4998785;28;20197;-86
2023/04/22 03:22:39;;;;;;;27.07;24.17;;;10.60;93.60;;;;;;4995189;28;20171;-86
2023/04/22 03:25:05;;;;;;;27.77;24.77;;;10.50;96.70;;;;;;4995036;28;20518;-86
2023/04/22 03:27:35;;;;;;;31.97;26.83;;;10.40;98.70;;;;;;4994824;28;20174;-86
2023/04/22 03:30:03;;;;;;;28.27;24.53;;;10.40;99.90;;;;;;4994063;28;20198;-86
2023/04/22 03:32:28;;;;;;;29.27;25.97;;;10.30;99.90;;;;;;4995592;28;20231;-86
2023/04/22 03:34:54;;;;;;;27.43;24.40;;;10.30;99.90;;;;;;4995370;28;20257;-89
2023/04/22 03:37:20;;;;;;;30.53;26.13;;;10.30;99.90;;;;;;4995341;28;20171;-89
2023/04/22 03:39:46;;;;;;;33.70;25.13;;;10.30;99.90;;;;;;5010042;28;20163;-87
2023/04/22 03:42:13;;;;;;;27.27;24.33;;;10.40;99.90;;;;;;5018803;28;20250;-88
2023/04/22 03:44:41;;;;;;;27.27;23.53;;;10.40;99.90;;;;;;5017895;28;20213;-87
2023/04/22 03:47:07;;;;;;;28.17;23.83;;;10.40;99.90;;;;;;5013516;28;20179;-90
2023/04/22 03:49:33;;;;;;;25.73;22.97;;;10.50;99.90;;;;;;5010761;28;20190;-89
2023/04/22 03:52:03;;;;;;;27.33;23.33;;;10.50;99.90;;;;;;5006223;28;20210;-88
2023/04/22 03:54:32;;;;;;;28.43;24.60;;;10.60;99.90;;;;;;5013908;28;20179;-90
2023/04/22 03:56:58;;;;;;;28.50;24.97;;;10.60;99.90;;;;;;5013429;28;20499;-89
2023/04/22 03:59:53;;;;;;;27.53;24.47;;;10.60;99.90;;;;;;5014502;28;20175;-89
2023/04/22 04:02:20;;;;;;;32.77;23.37;;;10.50;99.90;;;;;;5005132;28;20202;-89
2023/04/22 04:04:45;;;;;;;26.97;23.37;;;10.50;99.90;;;;;;5005183;28;20206;-89
2023/04/22 04:07:13;;;;;;;25.37;22.63;;;10.50;99.90;;;;;;5007141;28;20178;-88
2023/04/22 04:09:38;;;;;;;25.70;22.40;;;10.50;99.90;;;;;;5010551;28;20167;-88
2023/04/22 04:12:04;;;;;;;25.67;22.90;;;10.50;99.90;;;;;;4997480;28;20226;-90
2023/04/22 04:14:30;;;;;;;26.00;23.20;;;10.50;99.90;;;;;;5000133;28;20155;-89
2023/04/22 04:16:56;;;;;;;26.00;23.30;;;10.60;99.90;;;;;;5017055;28;20198;-86
2023/04/22 04:19:21;;;;;;;26.90;23.10;;;10.70;99.90;;;;;;5017177;28;20214;-89
2023/04/22 04:21:47;;;;;;;24.30;21.00;;;10.50;99.90;;;;;;5016934;28;20167;-89
2023/04/22 04:24:16;;;;;;;27.03;23.57;;;10.60;99.90;;;;;;5013508;28;20182;-89
2023/04/22 04:26:45;;;;;;;28.10;23.63;;;10.60;99.90;;;;;;5011913;28;20194;-87
2023/04/22 04:29:14;;;;;;;26.50;22.90;;;10.70;99.90;;;;;;4994408;28;20233;-87
2023/04/22 04:31:40;;;;;;;23.20;20.80;;;10.70;99.90;;;;;;4994148;28;20206;-87
2023/04/22 04:34:07;;;;;;;26.40;22.67;;;10.80;99.90;;;;;;4992915;28;20168;-87
2023/04/22 04:36:32;;;;;;;25.63;22.87;;;11.00;99.90;;;;;;4993794;28;20171;-86
2023/04/22 04:38:58;;;;;;;25.73;23.00;;;11.10;99.10;;;;;;4995289;28;20181;-88
2023/04/22 04:41:26;;;;;;;25.40;22.63;;;11.20;97.60;;;;;;5013905;28;20194;-86
2023/04/22 04:43:53;;;;;;;26.10;23.33;;;11.30;96.50;;;;;;4996623;28;20184;-87
2023/04/22 04:46:20;;;;;;;26.53;23.63;;;11.30;95.50;;;;;;5015150;28;20167;-89
2023/04/22 04:48:49;;;;;;;27.83;24.03;;;11.30;94.40;;;;;;5015517;28;20169;-86
2023/04/22 04:51:20;;;;;;;28.73;25.70;;;11.30;93.90;;;;;;5009072;28;20225;-87
2023/04/22 04:54:03;;;;;;;27.37;24.33;;;11.40;93.10;;;;;;5003530;28;20175;-88
2023/04/22 04:56:29;;;;;;;27.13;23.77;;;11.50;92.00;;;;;;4997759;28;20554;-89
2023/04/22 04:59:01;;;;;;;27.40;24.50;;;11.50;90.60;;;;;;4998620;28;20254;-88
2023/04/22 05:01:27;;;;;;;29.00;25.17;;;11.50;88.80;;;;;;4993813;28;20179;-87
2023/04/22 05:03:53;;;;;;;28.10;25.07;;;11.50;85.00;;;;;;4993526;28;20192;-87
2023/04/22 05:06:18;;;;;;;30.13;25.67;;;11.60;83.00;;;;;;4993622;28;20261;-87
2023/04/22 05:08:45;;;;;;;29.07;25.23;;;11.60;82.40;;;;;;4994234;28;20175;-87
2023/04/22 05:11:10;;;;;;;29.50;25.67;;;11.60;79.20;;;;;;4991730;28;20275;-87
2023/04/22 05:13:36;;;;;;;27.67;24.67;;;11.60;76.50;;;;;;4994636;28;20178;-87
2023/04/22 05:16:03;;;;;;;28.07;25.07;;;11.60;73.90;;;;;;4992350;28;20183;-86
2023/04/22 05:18:29;;;;;;;27.57;24.57;;;11.70;71.60;;;;;;4993004;28;20194;-86
2023/04/22 05:20:58;;;;;;;27.63;24.23;;;11.70;68.80;;;;;;4994462;28;20181;-89
2023/04/22 05:23:25;;;;;;;28.20;25.17;;;11.70;67.40;;;;;;4997081;28;20179;-89
2023/04/22 05:25:52;;;;;;;28.40;25.10;;;11.80;63.70;;;;;;5000730;28;20175;-88
2023/04/22 05:28:18;;;;;;;28.43;25.37;;;11.80;60.90;;;;;;5000999;28;20855;-90
2023/04/22 05:30:44;;;;;;;27.87;23.63;;;11.70;59.10;;;;;;4998635;28;20195;-89
2023/04/22 05:33:09;;;;;;;26.83;23.93;;;11.80;57.70;;;;;;4997270;28;20214;-90
2023/04/22 05:35:35;;;;;;;27.97;24.07;;;11.90;54.10;;;;;;4994040;28;20202;-89
2023/04/22 05:38:01;;;;;;;27.37;24.33;;;11.90;51.30;;;;;;4993239;28;20212;-90
2023/04/22 05:40:28;;;;;;;26.13;22.93;;;12.00;51.30;;;;;;4995924;28;20199;-91
2023/04/22 05:42:56;;;;;;;25.57;22.80;;;12.00;49.60;;;;;;5000008;28;20179;-90
2023/04/22 05:45:23;;;;;;;26.63;23.73;;;12.10;47.90;;;;;;5009198;28;20171;-90
2023/04/22 05:47:49;;;;;;;29.67;24.10;;;12.10;46.20;;;;;;4996711;28;20184;-89
2023/04/22 05:50:15;;;;;;;27.60;23.37;;;12.10;44.10;;;;;;4995637;28;20541;-90
2023/04/22 05:52:42;;;;;;;28.53;24.27;;;12.20;43.70;;;;;;4995284;28;20211;-90
2023/04/22 05:55:09;;;;;;;27.97;23.83;;;12.20;42.00;;;;;;5011545;28;20172;-87
2023/04/22 05:57:34;;;;;;;25.63;22.63;;;12.20;40.70;;;;;;5005005;28;20210;-89
2023/04/22 06:00:00;;;;;;;26.53;23.20;;;12.30;36.90;;;;;;4997205;28;20167;-88
2023/04/22 06:02:28;;;;;;;26.27;23.40;;;11.90;41.70;;;;;;5001025;28;20177;-88
2023/04/22 06:04:54;;;;;;;25.27;22.53;;;11.60;57.70;;;;;;5002473;28;20198;-88
2023/04/22 06:07:20;;;;;;;27.20;24.37;;;11.40;64.60;;;;;;5008383;28;20175;-86
2023/04/22 06:09:46;;;;;;;27.17;23.73;;;11.20;71.80;;;;;;5009848;28;20175;-87
2023/04/22 06:12:12;;;;;;;26.83;23.73;;;11.30;75.10;;;;;;5007412;28;20209;-87
2023/04/22 06:14:38;;;;;;;29.33;25.67;;;11.30;75.50;;;;;;4998325;28;20182;-89
2023/04/22 06:17:04;;;;;;;27.10;24.20;;;11.30;75.00;;;;;;4998638;28;20191;-88
2023/04/22 06:19:30;;;;;;;29.30;25.00;;;11.40;72.30;;;;;;4998153;28;20195;-91
2023/04/22 06:21:55;;;;;;;27.67;24.30;;;11.40;69.30;;;;;;4999400;28;20186;-89
2023/04/22 06:24:21;;;;;;;29.03;26.03;;;11.50;67.70;;;;;;4997401;28;20222;-89
2023/04/22 06:26:48;;;;;;;28.33;25.30;;;11.50;67.10;;;;;;4998945;28;20274;-87
2023/04/22 06:29:14;;;;;;;30.30;25.67;;;11.50;68.80;;;;;;4997776;28;20202;-88
2023/04/22 06:32:47;;;;;;;;;;;;;;;;;;;;;
2023/04/22 06:35:20;;;;;;;28.37;24.20;;;11.70;66.00;;;;;;5005802;28;20171;-88
2023/04/22 06:37:48;;;;;;;31.33;26.20;;;11.60;66.80;;;;;;4982891;28;20188;-87
2023/04/22 06:40:14;;;;;;;27.13;24.33;;;11.60;65.30;;;;;;5008663;28;20243;-87
2023/04/22 06:42:42;;;;;;;31.40;25.63;;;11.50;62.60;;;;;;5014353;28;20189;-87
2023/04/22 06:45:11;;;;;;;34.30;27.47;;;11.30;66.70;;;;;;5018840;28;20219;-86
2023/04/22 06:47:40;;;;;;;32.07;26.93;;;11.20;70.90;;;;;;5014113;28;20187;-87
2023/04/22 06:50:07;;;;;;;32.17;26.53;;;11.10;72.50;;;;;;4984439;28;20184;-86
2023/04/22 06:52:35;;;;;;;30.20;26.60;;;11.10;77.60;;;;;;4997847;28;20674;-90
2023/04/22 06:55:07;;;;;;;30.47;27.03;;;11.00;80.90;;;;;;5001742;28;20171;-88
2023/04/22 06:57:33;;;;;;;32.47;27.17;;;10.80;84.20;;;;;;4984651;28;20636;-87
2023/04/22 06:59:59;;;;;;;33.80;26.10;;;10.80;87.00;;;;;;5000759;28;20171;-88
2023/04/22 07:02:24;;;;;;;34.70;27.77;;;10.80;90.20;;;;;;5001694;28;20234;-88
2023/04/22 07:04:50;;;;;;;34.63;27.97;;;10.80;90.60;;;;;;5010078;28;20653;-87
2023/04/22 07:07:16;;;;;;;33.07;27.23;;;11.00;90.10;;;;;;5002907;28;20182;-88
2023/04/22 07:09:44;;;;;;;32.93;26.93;;;11.10;87.50;;;;;;5001783;28;20195;-88
2023/04/22 07:12:13;;;;;;;32.43;28.50;;;11.00;86.40;;;;;;5002860;28;20238;-88
2023/04/22 07:14:43;;;;;;;34.60;28.97;;;11.10;88.10;;;;;;5004156;28;20198;-87
2023/04/22 07:17:09;;;;;;;31.73;27.03;;;11.20;86.20;;;;;;5001330;28;20183;-88
2023/04/22 07:19:35;;;;;;;30.37;25.93;;;11.20;83.40;;;;;;5002623;28;20191;-89
2023/04/22 07:22:02;;;;;;;29.90;25.50;;;11.30;83.70;;;;;;5000541;28;20178;-88
2023/04/22 07:24:28;;;;;;;31.27;26.27;;;11.40;81.40;;;;;;5009669;28;20225;-87
2023/04/22 07:26:54;;;;;;;28.37;25.30;;;11.40;76.40;;;;;;5010556;28;20166;-88
2023/04/22 07:29:20;;;;;;;27.70;24.60;;;11.50;77.70;;;;;;5017385;28;20175;-88
2023/04/22 07:31:45;;;;;;;28.47;24.40;;;11.50;75.20;;;;;;5014134;28;20233;-87
2023/04/22 07:34:11;;;;;;;27.80;23.60;;;11.50;73.60;;;;;;5012286;28;20179;-87
2023/04/22 07:36:39;;;;;;;28.77;22.53;;;11.50;74.30;;;;;;5002447;28;20719;-87
2023/04/22 07:39:08;;;;;;;27.37;23.70;;;11.50;76.50;;;;;;5000381;28;20168;-89
2023/04/22 07:41:40;;;;;;;27.07;23.37;;;11.40;81.80;;;;;;4999612;28;20182;-88
2023/04/22 07:44:05;;;;;;;23.80;19.97;;;11.60;81.80;;;;;;4999033;28;20197;-87
2023/04/22 07:46:31;;;;;;;24.37;21.77;;;11.60;76.00;;;;;;5009707;28;20170;-87
2023/04/22 07:48:57;;;;;;;26.53;20.70;;;11.60;75.60;;;;;;5017898;28;20179;-89
2023/04/22 07:51:24;;;;;;;24.37;20.03;;;11.60;73.30;;;;;;5011255;28;20563;-87
2023/04/22 07:53:50;;;;;;;23.33;19.17;;;11.60;74.10;;;;;;5008866;28;20171;-86
2023/04/22 07:56:16;;;;;;;24.50;20.13;;;11.60;77.30;;;;;;5005458;28;20233;-86
2023/04/22 07:58:44;;;;;;;20.37;18.27;;;11.60;75.00;;;;;;5010681;28;20175;-88
2023/04/22 08:01:34;;;;;;;20.60;17.97;;;11.70;74.20;;;;;;5010039;28;20155;-86
2023/04/22 08:04:00;;;;;;;21.50;19.23;;;11.90;69.20;;;;;;5012632;28;20258;-88
2023/04/22 08:06:38;;;;;;;22.50;19.60;;;12.20;68.80;;;;;;5014824;28;20198;-88
2023/04/22 08:09:03;;;;;;;22.83;20.33;;;12.60;66.70;;;;;;5016027;28;20204;-86
2023/04/22 08:11:29;;;;;;;21.60;19.00;;;12.90;59.10;;;;;;5014958;28;20215;-85
2023/04/22 08:13:55;;;;;;;21.30;18.13;;;13.20;55.20;;;;;;5009784;28;20185;-89
2023/04/22 08:16:23;;;;;;;21.63;19.30;;;13.50;49.20;;;;;;5008376;28;20169;-87
2023/04/22 08:18:50;;;;;;;19.50;17.50;;;13.70;40.90;;;;;;5018132;28;20181;-85
2023/04/22 08:21:18;;;;;;;18.57;16.53;;;13.80;34.50;;;;;;5017279;28;20188;-86
2023/04/22 08:23:44;;;;;;;17.70;15.80;;;14.00;31.80;;;;;;5012594;28;20179;-88
2023/04/22 08:26:14;;;;;;;17.83;15.93;;;14.30;29.10;;;;;;5011192;28;20175;-87
2023/04/22 08:28:42;;;;;;;18.20;16.03;;;14.50;25.70;;;;;;5014980;28;20208;-88
2023/04/22 08:31:15;;;;;;;18.03;16.07;;;14.70;17.00;;;;;;5017390;28;20218;-86
2023/04/22 08:33:56;;;;;;;16.67;14.87;;;14.90;11.90;;;;;;4991212;28;20275;-86
2023/04/22 08:36:36;;;;;;;15.53;13.47;;;14.90;5.50;;;;;;5002868;28;20250;-87
2023/04/22 08:39:03;;;;;;;14.73;12.90;;;14.60;9.80;;;;;;4982770;28;20171;-88
2023/04/22 08:41:32;;;;;;;16.17;14.03;;;14.50;14.90;;;;;;5016677;28;20182;-85
2023/04/22 08:43:59;;;;;;;14.83;13.23;;;14.70;14.80;;;;;;5010947;28;20192;-86
2023/04/22 08:46:29;;;;;;;14.50;13.00;;;15.00;12.10;;;;;;4988030;28;20183;-87
2023/04/22 08:49:02;;;;;;;14.60;12.73;;;15.00;3.90;;;;;;4998776;28;20194;-87
2023/04/22 08:51:31;;;;;;;13.30;12.00;;;15.20;3.70;;;;;;5000611;28;20199;-88
2023/04/22 08:53:56;;;;;;;13.80;12.33;;;15.40;1.00;;;;;;4999004;28;20525;-87
2023/04/22 08:56:24;;;;;;;13.03;11.73;;;15.60;1.00;;;;;;5007517;28;20176;-89
2023/04/22 08:58:51;;;;;;;12.77;11.20;;;15.70;1.00;;;;;;4999688;28;20205;-86
2023/04/22 09:01:19;;;;;;;15.67;11.43;;;15.80;1.00;;;;;;4997693;28;20178;-85
2023/04/22 09:03:48;;;;;;;12.93;10.93;;;15.90;1.00;;;;;;4998917;28;20240;-87
2023/04/22 09:06:16;;;;;;;11.67;10.53;;;16.00;1.00;;;;;;4999973;28;20322;-86
2023/04/22 09:08:46;;;;;;;12.40;11.10;;;16.00;1.00;;;;;;4984601;28;20189;-87
2023/04/22 09:11:12;;;;;;;12.50;11.20;;;16.00;1.00;;;;;;5002134;28;20188;-85
2023/04/22 09:13:37;;;;;;;12.90;11.70;;;15.90;1.00;;;;;;4999278;28;20219;-86
2023/04/22 09:16:03;;;;;;;13.50;11.97;;;15.90;1.00;;;;;;4997452;28;20171;-88
2023/04/22 09:18:32;;;;;;;11.67;10.47;;;16.00;1.00;;;;;;5002021;28;20183;-87
2023/04/22 09:21:00;;;;;;;9.87;8.87;;;16.10;1.00;;;;;;5003213;28;20260;-85
2023/04/22 09:23:36;;;;;;;12.20;10.10;;;16.00;1.00;;;;;;5002736;28;20171;-89
2023/04/22 09:26:02;;;;;;;10.70;9.37;;;16.00;1.00;;;;;;5000828;28;20205;-86
2023/04/22 09:28:36;;;;;;;10.17;9.17;;;15.80;1.00;;;;;;5000200;28;20171;-88
2023/04/22 09:31:02;;;;;;;10.50;8.80;;;15.60;1.00;;;;;;4996444;28;20317;-85
2023/04/22 09:33:32;;;;;;;9.97;8.93;;;15.50;1.00;;;;;;4995628;28;20214;-85
2023/04/22 09:36:07;;;;;;;9.53;8.63;;;15.40;2.90;;;;;;5002924;28;20194;-86
2023/04/22 09:38:32;;;;;;;10.70;9.63;;;15.30;7.70;;;;;;5000793;28;20179;-86
2023/04/22 09:40:58;;;;;;;10.60;9.50;;;15.30;11.30;;;;;;5013164;28;20230;-88
2023/04/22 09:43:25;;;;;;;11.73;10.53;;;15.10;21.30;;;;;;5000905;28;20624;-88
2023/04/22 09:45:51;;;;;;;11.67;10.47;;;15.20;24.00;;;;;;5002703;28;20701;-87
2023/04/22 09:48:18;;;;;;;12.40;11.20;;;15.10;24.10;;;;;;5006211;28;20174;-88
2023/04/22 09:50:49;;;;;;;12.87;11.43;;;14.90;30.80;;;;;;5003587;28;20317;-87
2023/04/22 09:53:19;;;;;;;13.53;12.17;;;14.70;40.00;;;;;;5002467;28;20198;-86
2023/04/22 09:55:55;;;;;;;13.03;11.13;;;14.60;46.20;;;;;;5014451;28;20179;-91
2023/04/22 09:58:26;;;;;;;15.97;13.27;;;14.60;49.90;;;;;;5012077;28;20627;-90
2023/04/22 10:00:55;;;;;;;14.90;13.40;;;14.50;54.70;;;;;;4998295;28;20174;-89
2023/04/22 10:03:26;;;;;;;13.67;12.27;;;14.70;52.40;;;;;;5014339;28;20171;-91
2023/04/22 10:05:52;;;;;;;13.70;12.23;;;14.60;55.20;;;;;;4992542;28;20189;-92
2023/04/22 10:08:20;;;;;;;15.40;11.67;;;14.40;60.90;;;;;;5010002;28;20167;-90
2023/04/22 10:10:49;;;;;;;13.37;11.97;;;14.40;65.50;;;;;;5011504;28;20643;-92
2023/04/22 10:13:16;;;;;;;13.77;12.30;;;14.40;67.10;;;;;;4994897;28;20207;-92
2023/04/22 10:15:51;;;;;;;13.60;12.20;;;14.20;72.20;;;;;;5017564;28;20344;-89
2023/04/22 10:19:06;;;;;;;15.13;13.63;;;14.20;72.80;;;;;;5308786;22;20365;-89
2023/04/22 10:22:09;;;;;;;15.57;13.70;;;14.10;80.70;;;;;;5023447;28;20194;-91
2023/04/22 10:24:49;;;;;;;16.53;14.47;;;14.10;82.40;;;;;;5030253;28;20220;-92
2023/04/22 10:27:35;;;;;;;15.93;14.27;;;14.30;81.40;;;;;;5040129;28;20195;-92
2023/04/22 10:30:37;;;;;;;15.60;13.90;;;14.30;80.30;;;;;;5037783;28;20185;-91
2023/04/22 10:33:43;;;;;;;16.63;14.83;;;14.30;75.10;;;;;;5036197;28;20250;-91
2023/04/22 10:36:14;;;;;;;15.57;14.00;;;14.10;78.50;;;;;;5033795;28;20184;-92
2023/04/22 10:39:00;;;;;;;17.53;15.73;;;13.90;80.30;;;;;;5042145;28;20168;-89
2023/04/22 10:42:10;;;;;;;19.47;17.40;;;13.80;89.10;;;;;;5039586;28;20198;-87
2023/04/22 10:44:59;;;;;;;18.80;16.53;;;13.80;91.70;;;;;;5039605;28;20190;-89
2023/04/22 10:47:36;;;;;;;19.97;17.57;;;13.70;93.10;;;;;;5034663;28;20198;-89
2023/04/22 10:50:30;;;;;;;20.23;18.03;;;13.80;94.80;;;;;;5020033;28;20174;-89
2023/04/22 10:53:34;;;;;;;21.70;19.40;;;13.80;96.30;;;;;;5037322;28;20192;-90
2023/04/22 10:56:23;;;;;;;19.20;17.20;;;13.90;95.60;;;;;;5036121;28;20176;-91
2023/04/22 10:58:49;;;;;;;19.13;17.03;;;14.00;96.30;;;;;;5037862;28;20181;-85
2023/04/22 11:01:19;;;;;;;17.73;15.93;;;14.00;97.40;;;;;;5038577;28;20203;-89
2023/04/22 11:06:35;;;;;;;17.77;16.03;;;14.10;99.20;;;;;;5039808;23;20234;-90
2023/04/22 11:09:47;;;;;;;19.07;16.80;;;14.10;95.80;;;;;;5059771;28;20183;-89
2023/04/22 11:13:07;;;;;;;19.30;17.30;;;14.10;91.50;;;;;;5059716;28;20218;-91
2023/04/22 11:16:20;;;;;;;20.13;17.83;;;14.20;92.10;;;;;;5054804;28;20163;-89
2023/04/22 11:18:51;;;;;;;21.20;18.77;;;13.90;92.40;;;;;;5056537;28;20178;-90
2023/04/22 11:21:40;;;;;;;21.43;19.20;;;13.90;93.50;;;;;;5055401;28;20208;-89
2023/04/22 11:24:08;;;;;;;21.30;19.03;;;13.90;96.50;;;;;;5053515;28;20198;-89
2023/04/22 11:26:37;;;;;;;22.13;19.80;;;13.80;97.10;;;;;;5035343;28;20680;-92
2023/04/22 11:29:07;;;;;;;21.93;19.57;;;13.80;97.60;;;;;;5041528;28;20249;-89
2023/04/22 11:31:35;;;;;;;22.30;19.93;;;13.80;99.20;;;;;;5058376;28;20679;-90
2023/04/22 11:34:01;;;;;;;23.53;20.33;;;13.80;99.40;;;;;;5052915;28;20665;-88
2023/04/22 11:37:12;;;;;;;23.10;20.63;;;13.80;99.60;;;;;;5052433;28;20175;-85
2023/04/22 11:40:29;;;;;;;23.30;20.77;;;13.70;99.90;;;;;;5055338;28;20170;-89
2023/04/22 11:43:00;;;;;;;22.40;20.10;;;13.60;99.90;;;;;;5050793;28;20199;-88
2023/04/22 11:45:28;;;;;;;21.40;19.30;;;13.60;99.90;;;;;;5030564;28;20178;-88
2023/04/22 11:47:55;;;;;;;22.67;20.30;;;13.70;99.90;;;;;;5045370;28;20274;-88
2023/04/22 11:50:28;;;;;;;22.13;19.83;;;13.80;99.90;;;;;;5049023;28;20171;-87
2023/04/22 11:53:15;;;;;;;21.03;18.87;;;14.00;99.90;;;;;;5053900;28;20233;-88
2023/04/22 11:55:45;;;;;;;21.40;19.23;;;14.00;99.30;;;;;;5053781;28;20178;-87
2023/04/22 11:58:24;;;;;;;19.67;17.57;;;14.00;99.90;;;;;;5052549;28;20159;-88
2023/04/22 12:00:56;;;;;;;22.13;19.50;;;14.00;99.90;;;;;;5036023;28;20197;-87
2023/04/22 12:03:29;;;;;;;22.37;20.07;;;14.00;99.90;;;;;;5041950;28;20187;-86
2023/04/22 12:06:05;;;;;;;22.93;20.63;;;13.90;99.90;;;;;;5056215;28;20180;-87
2023/04/22 12:08:35;;;;;;;23.83;21.17;;;13.80;99.90;;;;;;5056447;28;20212;-86
2023/04/22 12:11:05;;;;;;;23.33;21.03;;;13.70;99.90;;;;;;5058237;28;20247;-86
2023/04/22 12:13:42;;;;;;;24.83;21.47;;;13.60;99.90;;;;;;5058143;28;20229;-86
2023/04/22 12:16:38;;;;;;;24.33;21.90;;;13.60;99.90;;;;;;5056681;28;20173;-86
2023/04/22 12:19:05;;;;;;;28.33;24.97;;;13.70;99.90;;;;;;5054680;28;20171;-85
2023/04/22 12:22:09;;;;;;;28.53;25.53;;;13.70;99.90;;;;;;5050025;28;20175;-85
2023/04/22 12:24:49;;;;;;;30.93;27.60;;;13.70;99.90;;;;;;5049020;28;20175;-87
2023/04/22 12:27:39;;;;;;;31.37;27.97;;;13.60;99.90;;;;;;5052394;28;20170;-85
2023/04/22 12:30:07;;;;;;;34.23;29.00;;;13.50;99.90;;;;;;5053415;28;20216;-86
2023/04/22 12:32:32;;;;;;;31.43;28.00;;;13.50;99.90;;;;;;5044882;28;20210;-85
2023/04/22 12:35:02;;;;;;;33.67;30.07;;;13.50;99.90;;;;;;5046772;28;20213;-85
2023/04/22 12:37:28;;;;;;;30.47;27.27;;;13.60;99.90;;;;;;5054509;28;20192;-86
2023/04/22 12:43:04;;;;;;;25.27;22.57;;;13.80;99.90;;;;;;5042255;28;20590;-85
2023/04/22 12:45:30;;;;;;;24.03;21.57;;;13.90;99.90;;;;;;5040170;28;20186;-85
2023/04/22 12:47:56;;;;;;;23.83;21.33;;;13.90;99.90;;;;;;5039604;28;20287;-87
2023/04/22 12:50:24;;;;;;;23.83;21.43;;;13.90;99.90;;;;;;5037074;28;20667;-85